Decoded Metar for LFRO (LANNION in FRANCE) (IATA:LAI) | Meteo·Mobile Aviation Weather
aviador You're here:

LFRO Decoded Metar

LANNION in FRANCE
Report Time2019-02-22 00:30:00
UTC Time2019-02-22 00:44:17
Flight Rules mvfr MVFR
Wind160° at 05 kt
W.Decomp.*RWY 11: 3.1 kt HW 3.9 kt RCW
W.Rank160° ranks 18
Current wind is below 160° avg. (6.0)
Visibility7000 m
Phenomena:N/A
Clouds:N/A
Expected CloudBase > 400 ft AGL from Temp-Dew spread
CeilingNone
Temp06°C (ISA -8)
Dew Point05°C (93% RH)
AAT3.1°C
QNH1031 hPa
Density Alt-1,214 ft
Elevation292 ft
Report Wrong Elevation
Raw Report
METAR LFRO 220030Z AUTO 16005KT 7000 NSC 06/05 Q1031=

Extra information for LFRO:More info

Metar Taf Metar & Taf Last 4 Metars F.Rules Stats Wind Profile Meteogram Temp Stats Airport Information Weather charts Add Link Nearby VenuesMetar ALERT Operation Metar Decoded Social comments